sensor_id;sensor_type;location;lat;lon;timestamp;pressure;altitude;pressure_sealevel;temperature;humidity
57948;BME280;43754;56.992;24.292;2023-05-23T00:01:48;101728.16;;;11.00;99.20
57948;BME280;43754;56.992;24.292;2023-05-23T00:04:21;101725.47;;;11.00;97.92
57948;BME280;43754;56.992;24.292;2023-05-23T00:06:59;101728.66;;;10.78;98.55
57948;BME280;43754;56.992;24.292;2023-05-23T00:09:31;101724.78;;;10.72;99.46
57948;BME280;43754;56.992;24.292;2023-05-23T00:12:04;101723.00;;;10.81;99.57
57948;BME280;43754;56.992;24.292;2023-05-23T00:14:36;101729.94;;;10.91;99.28
57948;BME280;43754;56.992;24.292;2023-05-23T00:17:08;101726.88;;;10.86;99.04
57948;BME280;43754;56.992;24.292;2023-05-23T00:19:41;101723.16;;;10.79;99.71
57948;BME280;43754;56.992;24.292;2023-05-23T00:22:17;101723.81;;;10.81;98.37
57948;BME280;43754;56.992;24.292;2023-05-23T00:24:49;101729.53;;;10.60;98.91
57948;BME280;43754;56.992;24.292;2023-05-23T00:27:21;101727.50;;;10.54;100.00
57948;BME280;43754;56.992;24.292;2023-05-23T00:29:54;101727.25;;;10.48;99.68
57948;BME280;43754;56.992;24.292;2023-05-23T00:32:26;101722.00;;;10.38;100.00
57948;BME280;43754;56.992;24.292;2023-05-23T00:34:58;101720.97;;;10.57;100.00
57948;BME280;43754;56.992;24.292;2023-05-23T00:37:32;101718.13;;;10.76;100.00
57948;BME280;43754;56.992;24.292;2023-05-23T00:40:06;101713.59;;;10.77;98.24
57948;BME280;43754;56.992;24.292;2023-05-23T00:42:39;101712.06;;;10.74;98.42
57948;BME280;43754;56.992;24.292;2023-05-23T00:45:11;101712.38;;;10.71;98.04
57948;BME280;43754;56.992;24.292;2023-05-23T00:47:43;101709.00;;;10.43;99.45
57948;BME280;43754;56.992;24.292;2023-05-23T00:50:16;101708.88;;;10.53;100.00
57948;BME280;43754;56.992;24.292;2023-05-23T00:52:49;101710.47;;;10.64;99.56
57948;BME280;43754;56.992;24.292;2023-05-23T00:55:22;101711.38;;;10.72;99.45
57948;BME280;43754;56.992;24.292;2023-05-23T00:57:54;101714.41;;;10.77;98.98
57948;BME280;43754;56.992;24.292;2023-05-23T01:00:28;101706.50;;;10.68;98.20
57948;BME280;43754;56.992;24.292;2023-05-23T01:03:01;101704.94;;;10.65;98.92
57948;BME280;43754;56.992;24.292;2023-05-23T01:05:33;101713.69;;;10.67;99.27
57948;BME280;43754;56.992;24.292;2023-05-23T01:08:07;101709.63;;;10.63;99.65
57948;BME280;43754;56.992;24.292;2023-05-23T01:10:40;101709.63;;;10.63;98.45
57948;BME280;43754;56.992;24.292;2023-05-23T01:13:19;101713.00;;;10.65;99.10
57948;BME280;43754;56.992;24.292;2023-05-23T01:15:57;101701.50;;;10.73;99.40
57948;BME280;43754;56.992;24.292;2023-05-23T01:18:37;101709.16;;;10.68;98.27
57948;BME280;43754;56.992;24.292;2023-05-23T01:21:16;101717.34;;;10.66;99.47
57948;BME280;43754;56.992;24.292;2023-05-23T01:24:02;101715.53;;;10.67;98.17
57948;BME280;43754;56.992;24.292;2023-05-23T01:26:50;101711.00;;;10.67;99.38
57948;BME280;43754;56.992;24.292;2023-05-23T01:29:28;101719.72;;;10.69;99.47
57948;BME280;43754;56.992;24.292;2023-05-23T01:32:06;101712.13;;;10.65;98.54
57948;BME280;43754;56.992;24.292;2023-05-23T01:34:40;101719.78;;;10.51;97.95
57948;BME280;43754;56.992;24.292;2023-05-23T01:37:14;101718.16;;;10.41;97.55
57948;BME280;43754;56.992;24.292;2023-05-23T01:39:49;101719.53;;;10.27;99.24
57948;BME280;43754;56.992;24.292;2023-05-23T01:42:21;101713.38;;;10.27;99.44
57948;BME280;43754;56.992;24.292;2023-05-23T01:44:56;101720.31;;;10.37;100.00
57948;BME280;43754;56.992;24.292;2023-05-23T01:47:30;101720.91;;;10.49;100.00
57948;BME280;43754;56.992;24.292;2023-05-23T01:50:03;101713.63;;;10.59;99.89
57948;BME280;43754;56.992;24.292;2023-05-23T01:52:36;101710.25;;;10.57;98.22
57948;BME280;43754;56.992;24.292;2023-05-23T01:55:09;101706.84;;;10.47;97.93
57948;BME280;43754;56.992;24.292;2023-05-23T01:57:43;101708.44;;;10.40;99.97
57948;BME280;43754;56.992;24.292;2023-05-23T02:00:20;101707.13;;;10.44;100.00
57948;BME280;43754;56.992;24.292;2023-05-23T02:02:52;101707.38;;;10.50;99.51
57948;BME280;43754;56.992;24.292;2023-05-23T02:05:25;101697.78;;;10.48;98.58
57948;BME280;43754;56.992;24.292;2023-05-23T02:07:58;101705.53;;;10.33;99.08
57948;BME280;43754;56.992;24.292;2023-05-23T02:10:30;101700.44;;;10.22;99.50
57948;BME280;43754;56.992;24.292;2023-05-23T02:13:04;101704.78;;;10.23;100.00
57948;BME280;43754;56.992;24.292;2023-05-23T02:15:37;101705.00;;;10.30;99.93
57948;BME280;43754;56.992;24.292;2023-05-23T02:18:10;101707.06;;;10.36;99.57
57948;BME280;43754;56.992;24.292;2023-05-23T02:20:46;101705.81;;;10.48;99.52
57948;BME280;43754;56.992;24.292;2023-05-23T02:23:18;101712.25;;;10.55;98.97
57948;BME280;43754;56.992;24.292;2023-05-23T02:25:50;101706.91;;;10.55;98.31
57948;BME280;43754;56.992;24.292;2023-05-23T02:28:23;101707.44;;;10.41;98.79
57948;BME280;43754;56.992;24.292;2023-05-23T02:30:57;101709.06;;;10.34;99.38
57948;BME280;43754;56.992;24.292;2023-05-23T02:33:29;101707.63;;;10.39;98.81
57948;BME280;43754;56.992;24.292;2023-05-23T02:36:01;101705.59;;;10.41;99.42
57948;BME280;43754;56.992;24.292;2023-05-23T02:38:34;101697.63;;;10.49;99.53
57948;BME280;43754;56.992;24.292;2023-05-23T02:41:07;101697.06;;;10.64;99.35
57948;BME280;43754;56.992;24.292;2023-05-23T02:43:39;101696.66;;;10.76;98.37
57948;BME280;43754;56.992;24.292;2023-05-23T02:46:13;101698.50;;;10.76;97.72
57948;BME280;43754;56.992;24.292;2023-05-23T02:48:45;101693.59;;;10.71;97.35
57948;BME280;43754;56.992;24.292;2023-05-23T02:51:17;101692.41;;;10.48;98.20
57948;BME280;43754;56.992;24.292;2023-05-23T02:53:49;101691.28;;;10.50;99.17
57948;BME280;43754;56.992;24.292;2023-05-23T02:56:21;101698.84;;;10.55;98.71
57948;BME280;43754;56.992;24.292;2023-05-23T02:58:53;101699.53;;;10.57;99.76
57948;BME280;43754;56.992;24.292;2023-05-23T03:01:27;101696.94;;;10.73;99.10
57948;BME280;43754;56.992;24.292;2023-05-23T03:03:59;101696.84;;;10.83;98.79
57948;BME280;43754;56.992;24.292;2023-05-23T03:06:32;101691.75;;;10.97;98.41
57948;BME280;43754;56.992;24.292;2023-05-23T03:09:05;101695.16;;;11.07;97.81
57948;BME280;43754;56.992;24.292;2023-05-23T03:11:37;101688.97;;;11.15;97.35
57948;BME280;43754;56.992;24.292;2023-05-23T03:14:09;101694.56;;;11.22;96.80
57948;BME280;43754;56.992;24.292;2023-05-23T03:16:42;101686.16;;;11.17;97.21
57948;BME280;43754;56.992;24.292;2023-05-23T03:19:15;101695.03;;;11.17;97.27
57948;BME280;43754;56.992;24.292;2023-05-23T03:21:47;101698.94;;;11.23;97.42
57948;BME280;43754;56.992;24.292;2023-05-23T03:24:21;101693.59;;;11.31;96.92
57948;BME280;43754;56.992;24.292;2023-05-23T03:26:54;101693.78;;;11.37;96.67
57948;BME280;43754;56.992;24.292;2023-05-23T03:29:27;101693.31;;;11.42;96.99
57948;BME280;43754;56.992;24.292;2023-05-23T03:32:01;101687.44;;;11.46;97.37
57948;BME280;43754;56.992;24.292;2023-05-23T03:34:33;101689.13;;;11.47;97.75
57948;BME280;43754;56.992;24.292;2023-05-23T03:37:07;101690.66;;;11.58;97.89
57948;BME280;43754;56.992;24.292;2023-05-23T03:39:39;101693.81;;;12.44;95.57
57948;BME280;43754;56.992;24.292;2023-05-23T03:42:11;101681.41;;;13.61;89.35
57948;BME280;43754;56.992;24.292;2023-05-23T03:44:43;101694.63;;;14.24;85.59
57948;BME280;43754;56.992;24.292;2023-05-23T03:47:17;101685.69;;;14.24;85.22
57948;BME280;43754;56.992;24.292;2023-05-23T03:49:49;101682.06;;;14.17;85.43
57948;BME280;43754;56.992;24.292;2023-05-23T03:52:21;101682.19;;;14.01;86.47
57948;BME280;43754;56.992;24.292;2023-05-23T03:54:53;101683.78;;;13.87;87.85
57948;BME280;43754;56.992;24.292;2023-05-23T03:57:25;101678.75;;;13.84;88.28
57948;BME280;43754;56.992;24.292;2023-05-23T03:59:58;101686.69;;;14.68;84.83
57948;BME280;43754;56.992;24.292;2023-05-23T04:02:31;101675.91;;;15.56;80.24
57948;BME280;43754;56.992;24.292;2023-05-23T04:05:04;101670.16;;;16.23;76.66
57948;BME280;43754;56.992;24.292;2023-05-23T04:07:37;101670.38;;;16.71;74.62
57948;BME280;43754;56.992;24.292;2023-05-23T04:10:11;101665.84;;;17.12;72.41
57948;BME280;43754;56.992;24.292;2023-05-23T04:12:44;101663.09;;;17.46;70.68
57948;BME280;43754;56.992;24.292;2023-05-23T04:15:19;101670.75;;;17.77;69.42
57948;BME280;43754;56.992;24.292;2023-05-23T04:18:00;101667.88;;;17.99;68.06
57948;BME280;43754;56.992;24.292;2023-05-23T04:20:32;101664.75;;;18.21;66.96
57948;BME280;43754;56.992;24.292;2023-05-23T04:23:04;101660.16;;;18.42;67.08
57948;BME280;43754;56.992;24.292;2023-05-23T04:25:40;101662.91;;;18.61;65.49
57948;BME280;43754;56.992;24.292;2023-05-23T04:28:21;101658.91;;;18.83;64.39
57948;BME280;43754;56.992;24.292;2023-05-23T04:30:53;101656.81;;;18.99;63.57
57948;BME280;43754;56.992;24.292;2023-05-23T04:33:30;101654.22;;;19.17;63.10
57948;BME280;43754;56.992;24.292;2023-05-23T04:36:02;101656.06;;;19.29;62.55
57948;BME280;43754;56.992;24.292;2023-05-23T04:38:34;101665.22;;;19.42;63.26
57948;BME280;43754;56.992;24.292;2023-05-23T04:41:09;101649.06;;;19.60;61.92
57948;BME280;43754;56.992;24.292;2023-05-23T04:43:55;101648.69;;;19.88;62.86
57948;BME280;43754;56.992;24.292;2023-05-23T04:46:43;101647.84;;;19.87;61.17
57948;BME280;43754;56.992;24.292;2023-05-23T04:49:24;101643.53;;;20.04;61.78
57948;BME280;43754;56.992;24.292;2023-05-23T04:51:56;101642.44;;;20.43;59.15
57948;BME280;43754;56.992;24.292;2023-05-23T04:54:31;101639.81;;;20.55;58.85
57948;BME280;43754;56.992;24.292;2023-05-23T04:57:07;101653.38;;;20.61;58.91
57948;BME280;43754;56.992;24.292;2023-05-23T04:59:39;101651.31;;;20.82;58.38
57948;BME280;43754;56.992;24.292;2023-05-23T05:02:14;101644.84;;;21.19;57.49
57948;BME280;43754;56.992;24.292;2023-05-23T05:04:47;101647.63;;;21.31;56.04
57948;BME280;43754;56.992;24.292;2023-05-23T05:07:19;101651.78;;;21.33;55.01
57948;BME280;43754;56.992;24.292;2023-05-23T05:09:52;101651.56;;;21.35;54.81
57948;BME280;43754;56.992;24.292;2023-05-23T05:12:24;101647.16;;;21.34;54.47
57948;BME280;43754;56.992;24.292;2023-05-23T05:14:56;101644.56;;;21.57;54.27
57948;BME280;43754;56.992;24.292;2023-05-23T05:17:28;101636.97;;;21.89;52.85
57948;BME280;43754;56.992;24.292;2023-05-23T05:20:14;101634.41;;;21.94;51.59
57948;BME280;43754;56.992;24.292;2023-05-23T05:22:54;101631.50;;;21.89;53.18
57948;BME280;43754;56.992;24.292;2023-05-23T05:25:26;101635.25;;;22.06;51.75
57948;BME280;43754;56.992;24.292;2023-05-23T05:28:02;101633.66;;;22.17;50.89
57948;BME280;43754;56.992;24.292;2023-05-23T05:30:41;101630.56;;;22.36;51.02
57948;BME280;43754;56.992;24.292;2023-05-23T05:33:14;101630.34;;;22.50;51.38
57948;BME280;43754;56.992;24.292;2023-05-23T05:35:48;101631.63;;;22.59;50.47
57948;BME280;43754;56.992;24.292;2023-05-23T05:38:20;101627.75;;;22.78;51.39
57948;BME280;43754;56.992;24.292;2023-05-23T05:40:52;101636.06;;;22.95;50.69
57948;BME280;43754;56.992;24.292;2023-05-23T05:43:25;101630.22;;;23.03;48.90
57948;BME280;43754;56.992;24.292;2023-05-23T05:45:58;101626.72;;;23.19;48.34
57948;BME280;43754;56.992;24.292;2023-05-23T05:48:30;101626.50;;;23.20;47.96
57948;BME280;43754;56.992;24.292;2023-05-23T05:51:07;101630.88;;;23.33;47.39
57948;BME280;43754;56.992;24.292;2023-05-23T05:53:39;101626.47;;;23.32;48.01
57948;BME280;43754;56.992;24.292;2023-05-23T05:56:12;101614.78;;;23.48;48.51
57948;BME280;43754;56.992;24.292;2023-05-23T05:58:44;101621.19;;;23.54;46.84
57948;BME280;43754;56.992;24.292;2023-05-23T06:01:19;101619.34;;;23.59;47.25
57948;BME280;43754;56.992;24.292;2023-05-23T06:03:51;101613.16;;;23.64;46.36
57948;BME280;43754;56.992;24.292;2023-05-23T06:06:25;101613.25;;;23.69;46.90
57948;BME280;43754;56.992;24.292;2023-05-23T06:08:58;101615.16;;;23.68;47.14
57948;BME280;43754;56.992;24.292;2023-05-23T06:11:30;101613.53;;;23.84;47.15
57948;BME280;43754;56.992;24.292;2023-05-23T06:14:03;101612.97;;;23.82;47.06
57948;BME280;43754;56.992;24.292;2023-05-23T06:16:36;101615.72;;;23.99;46.71
57948;BME280;43754;56.992;24.292;2023-05-23T06:19:08;101604.13;;;24.08;46.73
57948;BME280;43754;56.992;24.292;2023-05-23T06:21:43;101604.13;;;24.08;46.87
57948;BME280;43754;56.992;24.292;2023-05-23T06:24:16;101605.94;;;24.03;46.40
57948;BME280;43754;56.992;24.292;2023-05-23T06:26:48;101606.47;;;24.16;46.39
57948;BME280;43754;56.992;24.292;2023-05-23T06:29:20;101602.47;;;24.24;46.17
57948;BME280;43754;56.992;24.292;2023-05-23T06:31:52;101600.47;;;24.36;45.68
57948;BME280;43754;56.992;24.292;2023-05-23T06:34:24;101602.38;;;24.36;44.36
57948;BME280;43754;56.992;24.292;2023-05-23T06:36:57;101599.53;;;24.47;45.50
57948;BME280;43754;56.992;24.292;2023-05-23T06:39:29;101593.81;;;24.49;44.57
57948;BME280;43754;56.992;24.292;2023-05-23T06:42:01;101588.75;;;24.57;44.65
57948;BME280;43754;56.992;24.292;2023-05-23T06:44:52;101596.31;;;24.50;45.08
57948;BME280;43754;56.992;24.292;2023-05-23T06:47:24;101594.88;;;24.64;44.42
57948;BME280;43754;56.992;24.292;2023-05-23T06:49:56;101592.84;;;24.77;44.92
57948;BME280;43754;56.992;24.292;2023-05-23T06:52:30;101589.53;;;24.74;45.30
57948;BME280;43754;56.992;24.292;2023-05-23T06:55:03;101592.06;;;24.98;44.51
57948;BME280;43754;56.992;24.292;2023-05-23T06:57:36;101589.31;;;24.98;43.43
57948;BME280;43754;56.992;24.292;2023-05-23T07:00:09;101585.50;;;24.99;43.01
57948;BME280;43754;56.992;24.292;2023-05-23T07:02:50;101592.75;;;25.10;43.56
57948;BME280;43754;56.992;24.292;2023-05-23T07:05:24;101591.69;;;25.11;42.48
57948;BME280;43754;56.992;24.292;2023-05-23T07:07:58;101590.69;;;25.17;42.78
57948;BME280;43754;56.992;24.292;2023-05-23T07:10:30;101588.94;;;25.11;41.71
57948;BME280;43754;56.992;24.292;2023-05-23T07:13:16;101586.28;;;25.16;41.48
57948;BME280;43754;56.992;24.292;2023-05-23T07:15:48;101582.06;;;25.08;42.05
57948;BME280;43754;56.992;24.292;2023-05-23T07:18:22;101577.84;;;25.23;42.03
57948;BME280;43754;56.992;24.292;2023-05-23T07:20:54;101579.19;;;25.20;42.19
57948;BME280;43754;56.992;24.292;2023-05-23T07:23:31;101578.13;;;25.26;41.20
57948;BME280;43754;56.992;24.292;2023-05-23T07:26:03;101579.50;;;25.24;41.35
57948;BME280;43754;56.992;24.292;2023-05-23T07:28:45;101582.75;;;25.21;40.85
57948;BME280;43754;56.992;24.292;2023-05-23T07:31:17;101580.09;;;25.26;39.34
57948;BME280;43754;56.992;24.292;2023-05-23T07:33:50;101572.03;;;25.19;39.09
57948;BME280;43754;56.992;24.292;2023-05-23T07:36:32;101576.38;;;25.15;39.65
57948;BME280;43754;56.992;24.292;2023-05-23T07:39:09;101575.09;;;25.23;37.10
57948;BME280;43754;56.992;24.292;2023-05-23T07:41:41;101565.06;;;25.33;36.81
57948;BME280;43754;56.992;24.292;2023-05-23T07:44:13;101563.00;;;25.45;37.43
57948;BME280;43754;56.992;24.292;2023-05-23T07:46:45;101564.25;;;25.59;37.25
57948;BME280;43754;56.992;24.292;2023-05-23T07:49:18;101561.72;;;25.80;37.52
57948;BME280;43754;56.992;24.292;2023-05-23T07:51:50;101553.91;;;25.98;35.81
57948;BME280;43754;56.992;24.292;2023-05-23T07:54:24;101553.50;;;25.85;34.90
57948;BME280;43754;56.992;24.292;2023-05-23T07:57:02;101555.25;;;25.64;36.72
57948;BME280;43754;56.992;24.292;2023-05-23T07:59:34;101562.53;;;25.80;36.97
57948;BME280;43754;56.992;24.292;2023-05-23T08:02:07;101552.53;;;26.01;34.43
57948;BME280;43754;56.992;24.292;2023-05-23T08:04:39;101550.63;;;26.01;33.40
57948;BME280;43754;56.992;24.292;2023-05-23T08:07:12;101548.94;;;25.95;33.66
57948;BME280;43754;56.992;24.292;2023-05-23T08:09:52;101544.41;;;26.11;32.62
57948;BME280;43754;56.992;24.292;2023-05-23T08:12:25;101543.47;;;25.95;32.41
57948;BME280;43754;56.992;24.292;2023-05-23T08:15:06;101547.34;;;26.36;34.23
57948;BME280;43754;56.992;24.292;2023-05-23T08:17:46;101541.69;;;26.53;34.00
57948;BME280;43754;56.992;24.292;2023-05-23T08:20:21;101540.13;;;26.72;33.16
57948;BME280;43754;56.992;24.292;2023-05-23T08:22:53;101537.81;;;26.96;32.84
57948;BME280;43754;56.992;24.292;2023-05-23T08:25:30;101543.31;;;26.96;32.70
57948;BME280;43754;56.992;24.292;2023-05-23T08:28:03;101543.00;;;26.87;32.51
57948;BME280;43754;56.992;24.292;2023-05-23T08:30:43;101547.41;;;26.88;32.64
57948;BME280;43754;56.992;24.292;2023-05-23T08:33:15;101540.97;;;26.78;31.33
57948;BME280;43754;56.992;24.292;2023-05-23T08:35:51;101541.75;;;26.68;30.41
57948;BME280;43754;56.992;24.292;2023-05-23T08:38:23;101554.25;;;26.86;30.89
57948;BME280;43754;56.992;24.292;2023-05-23T08:41:18;101534.94;;;26.76;30.29
57948;BME280;43754;56.992;24.292;2023-05-23T08:43:52;101549.50;;;26.29;32.77
57948;BME280;43754;56.992;24.292;2023-05-23T08:46:31;101545.56;;;25.83;33.25
57948;BME280;43754;56.992;24.292;2023-05-23T08:49:04;101540.41;;;26.24;32.78
57948;BME280;43754;56.992;24.292;2023-05-23T08:51:37;101547.38;;;26.04;33.41
57948;BME280;43754;56.992;24.292;2023-05-23T08:54:18;101542.97;;;26.03;34.19
57948;BME280;43754;56.992;24.292;2023-05-23T08:56:52;101543.56;;;26.47;33.59
57948;BME280;43754;56.992;24.292;2023-05-23T08:59:25;101538.03;;;26.89;33.96
57948;BME280;43754;56.992;24.292;2023-05-23T09:01:59;101538.09;;;27.10;33.58
57948;BME280;43754;56.992;24.292;2023-05-23T09:04:32;101541.69;;;27.05;31.84
57948;BME280;43754;56.992;24.292;2023-05-23T09:07:10;101541.53;;;26.28;33.99
57948;BME280;43754;56.992;24.292;2023-05-23T09:09:43;101537.47;;;26.40;33.24
57948;BME280;43754;56.992;24.292;2023-05-23T09:12:19;101544.75;;;26.62;33.37
57948;BME280;43754;56.992;24.292;2023-05-23T09:14:54;101530.53;;;26.75;32.42
57948;BME280;43754;56.992;24.292;2023-05-23T09:17:30;101531.72;;;26.42;33.51
57948;BME280;43754;56.992;24.292;2023-05-23T09:20:02;101536.69;;;26.08;34.57
57948;BME280;43754;56.992;24.292;2023-05-23T09:22:46;101535.00;;;25.70;34.73
57948;BME280;43754;56.992;24.292;2023-05-23T09:25:22;101528.97;;;25.46;35.26
57948;BME280;43754;56.992;24.292;2023-05-23T09:27:56;101522.00;;;25.34;34.00
57948;BME280;43754;56.992;24.292;2023-05-23T09:30:33;101522.81;;;25.93;35.06
57948;BME280;43754;56.992;24.292;2023-05-23T09:33:05;101521.34;;;26.54;32.80
57948;BME280;43754;56.992;24.292;2023-05-23T09:35:43;101516.81;;;26.80;31.79
57948;BME280;43754;56.992;24.292;2023-05-23T09:38:17;101525.97;;;27.06;31.38
57948;BME280;43754;56.992;24.292;2023-05-23T09:40:53;101513.16;;;27.47;31.16
57948;BME280;43754;56.992;24.292;2023-05-23T09:43:29;101522.47;;;27.30;31.38
57948;BME280;43754;56.992;24.292;2023-05-23T09:46:06;101521.06;;;27.23;29.90
57948;BME280;43754;56.992;24.292;2023-05-23T09:48:38;101518.44;;;26.81;30.82
57948;BME280;43754;56.992;24.292;2023-05-23T09:51:11;101512.28;;;27.21;31.79
57948;BME280;43754;56.992;24.292;2023-05-23T09:53:43;101513.47;;;27.75;31.89
57948;BME280;43754;56.992;24.292;2023-05-23T09:56:15;101510.44;;;27.87;29.98
57948;BME280;43754;56.992;24.292;2023-05-23T09:58:49;101510.19;;;27.83;29.43
57948;BME280;43754;56.992;24.292;2023-05-23T10:01:22;101504.66;;;27.99;29.43
57948;BME280;43754;56.992;24.292;2023-05-23T10:03:56;101512.34;;;28.32;29.40
57948;BME280;43754;56.992;24.292;2023-05-23T10:06:36;101505.72;;;28.38;28.99
57948;BME280;43754;56.992;24.292;2023-05-23T10:09:16;101515.41;;;28.15;28.70
57948;BME280;43754;56.992;24.292;2023-05-23T10:14:57;101520.91;;;27.90;29.13
57948;BME280;43754;56.992;24.292;2023-05-23T10:17:43;101514.28;;;27.86;28.19
57948;BME280;43754;56.992;24.292;2023-05-23T10:20:21;101508.50;;;27.87;28.44
57948;BME280;43754;56.992;24.292;2023-05-23T10:22:55;101507.97;;;28.16;30.04
57948;BME280;43754;56.992;24.292;2023-05-23T10:25:29;101506.75;;;28.52;27.97
57948;BME280;43754;56.992;24.292;2023-05-23T10:28:02;101504.25;;;28.71;28.22
57948;BME280;43754;56.992;24.292;2023-05-23T10:30:37;101498.22;;;28.49;29.46
57948;BME280;43754;56.992;24.292;2023-05-23T10:33:10;101499.91;;;28.45;28.92
57948;BME280;43754;56.992;24.292;2023-05-23T10:35:49;101504.06;;;28.32;30.18
57948;BME280;43754;56.992;24.292;2023-05-23T10:38:35;101497.44;;;28.38;29.32
57948;BME280;43754;56.992;24.292;2023-05-23T10:41:10;101502.31;;;28.71;27.60
57948;BME280;43754;56.992;24.292;2023-05-23T10:43:49;101502.13;;;28.38;27.73
57948;BME280;43754;56.992;24.292;2023-05-23T10:46:49;101496.94;;;27.65;28.72
57948;BME280;43754;56.992;24.292;2023-05-23T10:49:37;101504.84;;;27.31;29.78
57948;BME280;43754;56.992;24.292;2023-05-23T10:52:10;101505.91;;;27.10;30.28
57948;BME280;43754;56.992;24.292;2023-05-23T10:54:44;101498.31;;;27.53;30.41
57948;BME280;43754;56.992;24.292;2023-05-23T10:57:19;101488.66;;;27.80;30.03
57948;BME280;43754;56.992;24.292;2023-05-23T10:59:51;101489.50;;;27.81;29.40
57948;BME280;43754;56.992;24.292;2023-05-23T11:02:26;101489.72;;;28.35;28.81
57948;BME280;43754;56.992;24.292;2023-05-23T11:05:17;101490.16;;;28.67;29.41
57948;BME280;43754;56.992;24.292;2023-05-23T11:08:08;101492.06;;;28.82;30.12
57948;BME280;43754;56.992;24.292;2023-05-23T11:10:54;101485.38;;;28.93;26.36
57948;BME280;43754;56.992;24.292;2023-05-23T11:13:54;101475.88;;;28.50;28.17
57948;BME280;43754;56.992;24.292;2023-05-23T11:16:28;101491.69;;;28.04;28.90
57948;BME280;43754;56.992;24.292;2023-05-23T11:19:29;101491.69;;;27.99;28.30
57948;BME280;43754;56.992;24.292;2023-05-23T11:22:02;101488.09;;;28.14;28.77
57948;BME280;43754;56.992;24.292;2023-05-23T11:24:50;101476.16;;;28.49;27.27
57948;BME280;43754;56.992;24.292;2023-05-23T11:27:27;101474.16;;;28.64;27.21
57948;BME280;43754;56.992;24.292;2023-05-23T11:30:02;101476.41;;;28.52;28.40
57948;BME280;43754;56.992;24.292;2023-05-23T11:32:35;101489.63;;;28.60;26.87
57948;BME280;43754;56.992;24.292;2023-05-23T11:35:10;101484.44;;;28.49;27.45
57948;BME280;43754;56.992;24.292;2023-05-23T11:37:42;101484.19;;;28.35;27.50
57948;BME280;43754;56.992;24.292;2023-05-23T11:40:26;101488.84;;;28.45;29.33
57948;BME280;43754;56.992;24.292;2023-05-23T11:42:59;101484.34;;;28.69;28.02
57948;BME280;43754;56.992;24.292;2023-05-23T11:45:32;101480.19;;;28.82;28.82
57948;BME280;43754;56.992;24.292;2023-05-23T11:48:06;101481.44;;;29.09;28.10
57948;BME280;43754;56.992;24.292;2023-05-23T11:50:47;101480.81;;;29.17;29.30
57948;BME280;43754;56.992;24.292;2023-05-23T11:53:20;101481.56;;;29.33;27.76
57948;BME280;43754;56.992;24.292;2023-05-23T11:55:54;101480.13;;;29.41;27.57
57948;BME280;43754;56.992;24.292;2023-05-23T11:58:30;101480.91;;;29.51;28.16
57948;BME280;43754;56.992;24.292;2023-05-23T12:01:03;101487.03;;;28.89;28.63
57948;BME280;43754;56.992;24.292;2023-05-23T12:03:44;101480.06;;;28.43;28.33
57948;BME280;43754;56.992;24.292;2023-05-23T12:06:19;101479.31;;;27.97;29.07
57948;BME280;43754;56.992;24.292;2023-05-23T12:08:51;101479.03;;;28.13;30.28
57948;BME280;43754;56.992;24.292;2023-05-23T12:11:23;101469.94;;;27.93;30.62
57948;BME280;43754;56.992;24.292;2023-05-23T12:13:56;101470.22;;;27.76;29.59
57948;BME280;43754;56.992;24.292;2023-05-23T12:16:30;101468.59;;;27.55;29.70
57948;BME280;43754;56.992;24.292;2023-05-23T12:19:05;101465.25;;;27.88;30.33
57948;BME280;43754;56.992;24.292;2023-05-23T12:21:43;101466.88;;;28.04;28.99
57948;BME280;43754;56.992;24.292;2023-05-23T12:24:16;101469.09;;;28.12;28.50
57948;BME280;43754;56.992;24.292;2023-05-23T12:26:50;101452.19;;;28.39;28.64
57948;BME280;43754;56.992;24.292;2023-05-23T12:29:28;101456.59;;;28.50;28.89
57948;BME280;43754;56.992;24.292;2023-05-23T12:32:05;101459.34;;;28.50;28.05
57948;BME280;43754;56.992;24.292;2023-05-23T12:34:40;101455.19;;;28.53;26.87
57948;BME280;43754;56.992;24.292;2023-05-23T12:37:15;101451.25;;;28.69;29.30
57948;BME280;43754;56.992;24.292;2023-05-23T12:39:51;101458.75;;;28.63;27.80
57948;BME280;43754;56.992;24.292;2023-05-23T12:42:23;101456.91;;;28.39;27.66
57948;BME280;43754;56.992;24.292;2023-05-23T12:44:55;101449.75;;;28.27;28.90
57948;BME280;43754;56.992;24.292;2023-05-23T12:47:28;101457.75;;;28.29;28.07
57948;BME280;43754;56.992;24.292;2023-05-23T12:50:00;101454.19;;;28.18;29.60
57948;BME280;43754;56.992;24.292;2023-05-23T12:52:34;101455.84;;;28.14;29.01
57948;BME280;43754;56.992;24.292;2023-05-23T12:55:09;101451.19;;;28.05;29.57
57948;BME280;43754;56.992;24.292;2023-05-23T12:57:41;101462.47;;;28.18;29.32
57948;BME280;43754;56.992;24.292;2023-05-23T13:00:14;101453.09;;;28.04;30.02
57948;BME280;43754;56.992;24.292;2023-05-23T13:02:46;101453.69;;;27.76;29.64
57948;BME280;43754;56.992;24.292;2023-05-23T13:05:18;101461.16;;;27.55;29.76
57948;BME280;43754;56.992;24.292;2023-05-23T13:07:51;101450.09;;;27.60;29.02
57948;BME280;43754;56.992;24.292;2023-05-23T13:10:23;101454.81;;;27.55;29.66
57948;BME280;43754;56.992;24.292;2023-05-23T13:12:55;101446.50;;;27.44;30.41
57948;BME280;43754;56.992;24.292;2023-05-23T13:15:27;101455.88;;;27.64;31.57
57948;BME280;43754;56.992;24.292;2023-05-23T13:17:59;101450.91;;;27.35;31.56
57948;BME280;43754;56.992;24.292;2023-05-23T13:20:32;101441.50;;;27.11;32.66
57948;BME280;43754;56.992;24.292;2023-05-23T13:23:06;101443.63;;;26.79;32.46